Flugplatz Neuburg AB (ETSN)

Hier findest Du alle Informationen zum Flugplatz Neuburg AB (ETSN).

Informationen für Piloten zum Flugplatz Neuburg AB

Hier findest Du alle relevanten Informationen, die Du als Pilot benötigst, um Neuburg AB anzufliegen.

Flugplatz: Neuburg AB ICAO-Code: ETSN
Frequenz Turm: - GAFOR Gebiet: -
Frequenz Ground: - Mogas: nein
Platzrunde: - Landegebühr: -
Platzhöhe: Sunrise: 06:39 Uhr UTC
Pisten: Sunset: 16:18 Uhr UTC

Mitglieder, die in Neuburg AB fliegen

Flugwetter am Flugplatz Neuburg AB

Die METAR Information stammen aus EDMA (37.96 km entfernt).

METAR Code:
2023/01/26 19:50
EDMA 261950Z 34003KT 9999 OVC013 M01/M02 Q1018

Temperatur: 4,2 °C Niederschlag: - Wind: 7,0 kt
Temperatur (min.): 3,0 °C Luftdruck: 1035 hPa Windrichtung: 360 °
Temperatur (max.): 5,1 °C Luftfeuchtigkeit: 68 % Bewölkung: 6/8

Flugschulen am Flugplatz Neuburg AB

Am Flugplatz Neuburg AB gibt es eine Flugschule.

Benachbarte Flugplätze und Flugschulen

Es gibt 11 weitere Flugplätze in einem Umkreis von 50 km um den Flugplatz Neuburg AB.

Jetzt anmelden

Passwort vergessen

Umfrage Archiv

Sendet Ihr ADS-B und/oder FLARM?

Ja
84.5 %
Nein
15.5 %
Stimmen: 277 | Diskussion
Anzeige: Roland Aircraft
Statistik Alle Mitglieder

Aktuell sind 65 Besucher online, davon 1 Mitglied und 64 Gäste.


Mitglieder online:
Uli-Light 

Anzeige: EasyVFR